Date,TemperatureHighF,TemperatureAvgF,TemperatureLowF,DewpointHighF,DewpointAvgF,DewpointLowF,HumidityHigh,HumidityAvg,HumidityLow,PressureMaxIn,PressureMinIn,WindSpeedMaxMPH,WindSpeedAvgMPH,GustSpeedMaxMPH,PrecipitationSumIn
2013-6-1,62,55,51,-100,-100,-100,0,0,100,0.00,40.00,0,-999,0,0.00
2013-6-2,76,57,41,-100,-100,-100,0,0,100,0.00,40.00,0,-999,0,0.00
2013-6-3,82,66,52,-100,-100,-100,0,0,100,0.00,40.00,0,-999,0,0.00
2013-6-4,70,65,58,-100,-100,-100,0,0,100,0.00,40.00,0,-999,0,0.00
2013-6-5,66,58,51,-100,-100,-100,0,0,100,0.00,40.00,0,-999,0,0.00
2013-6-6,69,58,45,-100,-100,-100,0,0,100,0.00,40.00,0,-999,0,0.00
2013-6-7,84,64,49,-100,-100,-100,0,0,100,0.00,40.00,0,-999,0,0.00
2013-6-8,71,63,58,-100,-100,-100,0,0,100,0.00,40.00,0,-999,0,0.00
2013-6-9,77,65,51,-100,-100,-100,0,0,100,0.00,40.00,0,-999,0,0.00
2013-6-10,95,75,53,-100,-100,-100,0,0,100,0.00,40.00,0,-999,0,0.00
2013-6-11,100,83,69,-100,-100,-100,0,0,100,0.00,40.00,0,-999,0,0.00
2013-6-12,83,72,59,-100,-100,-100,0,0,100,0.00,40.00,0,-999,0,0.00
2013-6-13,84,67,51,-100,-100,-100,0,0,100,0.00,40.00,0,-999,0,0.00
2013-6-14,95,77,65,-100,-100,-100,0,0,100,0.00,40.00,0,-999,0,0.00
2013-6-15,87,72,61,-100,-100,-100,0,0,100,0.00,40.00,0,-999,0,0.00
2013-6-16,88,71,62,-100,-100,-100,0,0,100,0.00,40.00,0,-999,0,0.00
2013-6-17,81,68,56,-100,-100,-100,0,0,100,0.00,40.00,0,-999,0,0.00
2013-6-18,83,71,59,-100,-100,-100,0,0,100,0.00,40.00,0,-999,0,0.00
2013-6-19,85,73,62,-100,-100,-100,0,0,100,0.00,40.00,0,-999,0,0.00
2013-6-20,91,73,66,-100,-100,-100,0,0,100,0.00,40.00,0,-999,0,0.00
2013-6-22,92,79,64,-100,-100,-100,0,0,100,0.00,40.00,0,-999,0,0.00
2013-6-23,82,70,59,-100,-100,-100,0,0,100,0.00,40.00,0,-999,0,0.00
2013-6-24,90,75,62,-100,-100,-100,0,0,100,0.00,40.00,0,-999,0,0.00
2013-6-25,87,77,69,-100,-100,-100,0,0,100,0.00,40.00,0,-999,0,0.00
2013-6-26,95,78,60,-100,-100,-100,0,0,100,0.00,40.00,0,-999,0,0.00
2013-6-27,87,76,65,-100,-100,-100,0,0,100,0.00,40.00,0,-999,0,0.00
2013-6-28,83,73,63,-100,-100,-100,0,0,100,0.00,40.00,0,-999,0,0.00
2013-6-29,78,68,57,-100,-100,-100,0,0,100,0.00,40.00,0,-999,0,0.00
2013-6-30,76,65,54,-100,-100,-100,0,0,100,0.00,40.00,0,-999,0,0.00